Time;durP1;ratioP1;P1;durP2;ratioP2;P2;SDS_P1;SDS_P2;PMS_P1;PMS_P2;Temp;Humidity;BMP_temperature;BMP_pressure;BME280_temperature;BME280_humidity;BME280_pressure;Samples;Min_cycle;Max_cycle;Signal;HPM_P1;HPM_P2
2023/03/27 00:01:24;;;;;;;0.85;0.50;;;8.60;69.20;;;3.77;100.00;94657.69;4993213;28;20025;-52
2023/03/27 00:03:52;;;;;;;1.25;0.52;;;8.50;69.10;;;3.76;100.00;94659.53;4995156;28;20087;-53
2023/03/27 00:06:20;;;;;;;1.33;0.70;;;8.50;69.10;;;3.82;100.00;94661.16;5012554;28;20028;-52
2023/03/27 00:08:50;;;;;;;1.15;0.70;;;8.60;69.20;;;3.77;100.00;94653.22;5011907;28;20056;-51
2023/03/27 00:11:18;;;;;;;0.95;0.50;;;8.60;69.20;;;3.82;100.00;94665.63;5012349;28;20037;-53
2023/03/27 00:13:45;;;;;;;0.50;0.50;;;8.60;69.20;;;3.78;100.00;94675.06;5011506;28;20017;-52
2023/03/27 00:16:11;;;;;;;0.75;0.52;;;8.60;69.10;;;3.83;100.00;94669.88;5012294;28;20025;-50
2023/03/27 00:18:38;;;;;;;1.42;0.57;;;8.60;69.10;;;3.83;100.00;94675.94;5012295;28;20083;-50
2023/03/27 00:21:04;;;;;;;0.40;0.40;;;8.60;69.20;;;3.88;100.00;94676.00;4993480;28;20036;-53
2023/03/27 00:23:31;;;;;;;1.60;0.60;;;8.60;69.10;;;3.87;100.00;94674.41;5010960;28;20024;-51
2023/03/27 00:25:59;;;;;;;1.30;0.50;;;8.60;70.00;;;3.85;100.00;94675.69;5011111;28;20028;-52
2023/03/27 00:28:29;;;;;;;8.52;0.70;;;8.60;69.20;;;3.83;100.00;94672.50;5012059;28;20104;-51
2023/03/27 00:30:57;;;;;;;0.63;0.50;;;8.60;69.30;;;3.83;100.00;94672.50;5012083;28;20030;-51
2023/03/27 00:33:24;;;;;;;0.80;0.47;;;8.60;69.30;;;3.83;100.00;94678.56;4976019;28;20048;-51
2023/03/27 00:35:51;;;;;;;0.77;0.55;;;8.50;69.30;;;3.79;100.00;94679.28;4992534;28;20479;-51
2023/03/27 00:38:18;;;;;;;0.95;0.60;;;8.50;69.40;;;3.84;100.00;94674.88;4991793;28;20014;-50
2023/03/27 00:40:47;;;;;;;1.83;0.60;;;8.50;69.50;;;3.85;100.00;94670.41;4992394;28;20029;-49
2023/03/27 00:43:32;;;;;;;0.63;0.40;;;8.50;69.50;;;3.81;100.00;94671.94;4991921;28;20025;-49
2023/03/27 00:46:15;;;;;;;2.20;0.50;;;8.40;69.60;;;3.82;100.00;94682.22;4994236;28;20029;-51
2023/03/27 00:48:47;;;;;;;1.30;0.60;;;8.40;69.60;;;3.74;100.00;94687.16;5012148;28;20104;-52
2023/03/27 00:51:15;;;;;;;1.58;0.57;;;8.40;69.70;;;3.74;100.00;94680.03;5009546;28;20468;-51
2023/03/27 00:53:44;;;;;;;0.80;0.57;;;8.40;69.70;;;3.78;100.00;94675.88;4994360;28;20387;-50
2023/03/27 00:56:14;;;;;;;0.98;0.47;;;8.40;69.80;;;3.75;100.00;94676.34;4993124;28;20387;-50
2023/03/27 00:58:52;;;;;;;1.23;0.77;;;8.40;69.80;;;3.70;100.00;94668.41;5011594;28;20025;-50
2023/03/27 01:01:25;;;;;;;1.98;0.60;;;8.40;69.90;;;3.65;100.00;94668.31;4993316;28;20450;-50
2023/03/27 01:03:54;;;;;;;4.53;0.85;;;8.40;70.00;;;3.74;100.00;94676.59;4994778;28;20029;-50
2023/03/27 01:06:21;;;;;;;3.05;0.95;;;8.40;70.00;;;3.71;100.00;94683.16;4994337;28;20023;-50
2023/03/27 01:08:47;;;;;;;2.25;0.70;;;8.40;70.00;;;3.67;100.00;94677.59;4989877;28;20068;-50
2023/03/27 01:11:41;;;;;;;2.97;0.70;;;8.40;70.10;;;3.71;100.00;94676.03;4990835;28;20373;-50
2023/03/27 01:14:28;;;;;;;;;;;8.30;70.10;;;3.67;100.00;94668.88;4998671;28;20386;-51
2023/03/27 01:18:02;;;;;;;3.10;1.00;;;8.30;69.90;;;3.69;100.00;94675.47;5011552;28;19916;-50
2023/03/27 01:20:53;;;;;;;;;;;8.30;70.20;;;3.70;100.00;94681.56;4996163;28;20091;-51
2023/03/27 01:23:54;;;;;;;3.10;0.80;;;8.30;70.10;;;3.69;100.00;94683.38;5008291;28;19920;-50
2023/03/27 01:27:01;;;;;;;1.23;1.00;;;8.30;70.30;;;3.67;100.00;94676.78;4980855;28;20062;-56
2023/03/27 01:30:01;;;;;;;3.67;0.82;;;8.30;70.30;;;3.71;100.00;94683.16;4970717;28;20492;-55
2023/03/27 01:33:15;;;;;;;4.72;1.15;;;8.30;70.40;;;3.74;100.00;94698.47;4979592;28;20022;-52
2023/03/27 01:36:27;;;;;;;3.38;1.10;;;8.40;70.40;;;3.74;100.00;94698.47;4995679;28;20022;-51
2023/03/27 01:39:15;;;;;;;1.45;1.10;;;8.40;71.20;;;3.77;100.00;94705.09;4978848;28;20033;-54
2023/03/27 01:42:28;;;;;;;1.50;0.90;;;8.40;70.50;;;3.74;100.00;94708.22;5015233;28;20018;-56
2023/03/27 01:45:18;;;;;;;1.15;1.05;;;8.40;70.60;;;3.75;100.00;94701.91;5014048;28;20048;-55
2023/03/27 01:48:10;;;;;;;1.27;0.90;;;8.40;70.60;;;3.80;100.00;94717.78;5015081;28;20504;-51
2023/03/27 01:50:50;;;;;;;4.47;1.42;;;8.40;70.70;;;3.83;100.00;94715.47;4993309;28;20093;-52
2023/03/27 01:53:33;;;;;;;2.90;1.20;;;8.50;70.70;;;3.82;100.00;94721.75;4995696;28;20029;-53
2023/03/27 01:56:36;;;;;;;1.65;1.00;;;8.50;70.70;;;3.85;100.00;94721.25;4995717;28;20507;-52
2023/03/27 01:59:15;;;;;;;2.90;1.17;;;8.50;70.60;;;3.86;100.00;94725.50;4978922;28;20041;-51
2023/03/27 02:01:53;;;;;;;4.03;1.35;;;8.60;70.70;;;3.88;100.00;94733.16;4981418;28;20053;-51
2023/03/27 02:04:43;;;;;;;1.42;1.13;;;8.60;70.70;;;3.88;100.00;94731.31;4997887;28;20025;-54
2023/03/27 02:07:27;;;;;;;2.20;1.33;;;8.60;70.70;;;3.88;100.00;94736.59;5014652;28;20051;-55
2023/03/27 02:10:07;;;;;;;2.70;1.50;;;8.60;70.70;;;3.93;100.00;94736.66;4998423;28;20104;-53
2023/03/27 02:12:45;;;;;;;6.00;1.63;;;8.60;70.70;;;3.95;100.00;94736.44;4997739;28;20483;-54
2023/03/27 02:15:21;;;;;;;4.75;1.85;;;8.70;70.70;;;3.94;100.00;94746.16;4997073;28;20393;-52
2023/03/27 02:18:04;;;;;;;2.08;1.58;;;8.70;70.70;;;3.98;100.00;94745.66;4997275;28;20030;-55
2023/03/27 02:20:33;;;;;;;5.20;1.73;;;8.70;70.70;;;3.98;100.00;94751.75;4997212;28;20116;-53
2023/03/27 02:23:00;;;;;;;7.22;1.60;;;8.70;70.60;;;3.98;100.00;94754.41;4996694;28;20041;-52
2023/03/27 02:25:50;;;;;;;3.55;1.75;;;8.70;70.60;;;3.91;100.00;94754.53;5013284;28;20090;-55
2023/03/27 02:29:06;;;;;;;4.00;1.63;;;8.70;70.70;;;3.99;100.00;94760.47;5014276;28;20025;-52
2023/03/27 02:32:06;;;;;;;2.90;1.50;;;8.70;70.60;;;4.02;100.00;94765.25;4998558;28;20495;-51
2023/03/27 02:35:21;;;;;;;4.00;1.92;;;8.70;70.70;;;4.07;100.00;94767.94;4982036;28;20075;-54
2023/03/27 02:38:32;;;;;;;1.58;1.48;;;8.80;70.70;;;4.02;100.00;94767.88;5013136;28;20468;-53
2023/03/27 02:41:37;;;;;;;3.05;1.38;;;8.80;70.70;;;4.04;100.00;94771.88;4999274;28;20483;-55
2023/03/27 02:44:27;;;;;;;3.35;1.73;;;8.80;70.70;;;4.06;100.00;94782.16;5013031;28;20045;-52
2023/03/27 02:47:10;;;;;;;2.63;1.65;;;8.80;70.80;;;4.05;100.00;94781.38;5013174;28;20025;-52
2023/03/27 02:49:52;;;;;;;2.63;1.42;;;8.80;70.80;;;4.00;100.00;94781.28;4996142;28;20014;-52
2023/03/27 02:52:33;;;;;;;3.53;1.50;;;8.80;70.70;;;4.08;100.00;94791.44;4996777;28;20029;-52
2023/03/27 02:55:37;;;;;;;7.32;1.75;;;8.80;70.80;;;4.04;100.00;94797.41;4996897;28;20057;-54
2023/03/27 02:58:15;;;;;;;3.20;1.65;;;8.80;70.70;;;4.04;100.00;94800.03;4996594;28;20033;-51
2023/03/27 03:00:49;;;;;;;4.32;1.50;;;8.80;70.70;;;4.06;100.00;94803.25;4996410;28;20082;-53
2023/03/27 03:03:52;;;;;;;2.50;1.25;;;8.80;70.70;;;4.08;100.00;94809.88;4995431;28;20051;-51
2023/03/27 03:06:28;;;;;;;4.22;1.25;;;8.90;70.80;;;4.05;100.00;94817.47;5013814;28;20025;-51
2023/03/27 03:09:05;;;;;;;3.63;1.40;;;8.80;70.70;;;4.11;100.00;94822.56;5012905;28;20091;-51
2023/03/27 03:11:35;;;;;;;3.35;1.48;;;8.90;70.70;;;4.12;100.00;94826.00;5013614;28;20021;-53
2023/03/27 03:14:01;;;;;;;4.07;1.30;;;8.90;70.70;;;4.10;100.00;94834.13;5012670;28;20025;-51
2023/03/27 03:16:29;;;;;;;3.10;1.27;;;8.90;70.70;;;4.11;100.00;94833.13;5013601;28;20487;-52
2023/03/27 03:18:56;;;;;;;2.35;1.42;;;8.90;70.70;;;4.08;100.00;94849.41;5013507;28;20029;-51
2023/03/27 03:21:23;;;;;;;2.00;1.20;;;8.90;70.60;;;4.13;100.00;94846.03;5012448;28;20704;-51
2023/03/27 03:23:49;;;;;;;2.85;1.00;;;8.90;70.60;;;4.11;100.00;94856.03;5010926;28;20017;-52
2023/03/27 03:26:15;;;;;;;1.60;1.00;;;8.90;70.60;;;4.15;100.00;94855.31;5011678;28;20025;-52
2023/03/27 03:28:42;;;;;;;2.00;1.15;;;8.90;70.60;;;4.14;100.00;94863.47;5013252;28;20036;-51
2023/03/27 03:31:11;;;;;;;1.60;0.98;;;8.90;70.60;;;4.13;100.00;94862.66;4979508;28;20047;-51
2023/03/27 03:33:37;;;;;;;2.17;1.05;;;8.90;70.60;;;4.14;100.00;94858.19;5012471;28;20384;-52
2023/03/27 03:36:04;;;;;;;3.65;1.27;;;8.90;70.60;;;4.15;100.00;94867.69;5013188;28;20029;-53
2023/03/27 03:38:34;;;;;;;2.03;1.10;;;8.90;70.60;;;4.15;100.00;94875.59;5012240;28;20037;-52
2023/03/27 03:41:01;;;;;;;1.20;0.90;;;8.90;70.60;;;4.12;100.00;94882.16;5013169;28;20029;-53
2023/03/27 03:43:30;;;;;;;3.00;1.00;;;8.90;70.60;;;4.14;100.00;94885.34;5012373;28;20056;-52
2023/03/27 03:45:56;;;;;;;2.45;0.98;;;8.90;70.60;;;4.12;100.00;94884.78;4979114;28;20032;-52
2023/03/27 03:48:22;;;;;;;2.40;1.13;;;8.90;70.60;;;4.11;100.00;94893.75;4993286;28;20022;-51
2023/03/27 03:50:49;;;;;;;3.78;0.95;;;8.90;70.60;;;4.10;100.00;94897.41;5004640;28;20059;-54
2023/03/27 03:53:19;;;;;;;1.40;1.10;;;8.90;70.60;;;4.11;100.00;94896.38;5013308;28;20032;-55
2023/03/27 03:55:51;;;;;;;3.83;0.90;;;8.80;70.60;;;4.14;100.00;94900.38;4994214;28;20037;-51
2023/03/27 03:58:17;;;;;;;1.95;1.00;;;8.90;70.60;;;4.12;100.00;94905.06;5012533;28;20101;-51
2023/03/27 04:00:45;;;;;;;1.25;0.82;;;8.80;70.60;;;4.11;100.00;94916.66;5006521;28;20685;-51
2023/03/27 04:03:13;;;;;;;1.67;0.95;;;8.90;70.60;;;4.04;100.00;94919.47;5009563;28;20041;-53
2023/03/27 04:05:39;;;;;;;1.00;0.90;;;8.80;70.60;;;4.06;100.00;94916.59;5006385;28;20025;-52
2023/03/27 04:08:07;;;;;;;1.67;1.20;;;8.80;70.50;;;4.07;100.00;94926.88;4998156;28;20116;-51
2023/03/27 04:10:38;;;;;;;1.70;1.20;;;8.80;70.60;;;4.09;100.00;94929.28;5001242;28;20017;-54
2023/03/27 04:13:05;;;;;;;1.40;0.98;;;8.80;71.40;;;4.05;100.00;94928.97;4992959;28;20400;-52
2023/03/27 04:15:32;;;;;;;2.25;1.15;;;8.80;70.60;;;4.06;100.00;94933.19;5010490;28;20468;-51
2023/03/27 04:17:58;;;;;;;1.63;1.27;;;8.80;70.60;;;4.03;100.00;94938.94;5010189;28;20044;-51
2023/03/27 04:20:25;;;;;;;1.52;1.20;;;8.80;70.60;;;4.03;100.00;94941.56;5000844;28;20036;-50
2023/03/27 04:22:53;;;;;;;1.27;0.80;;;8.80;70.60;;;4.00;100.00;94949.94;5011571;28;20514;-54
2023/03/27 04:25:23;;;;;;;2.55;1.25;;;8.80;70.60;;;3.98;100.00;94951.22;5011004;28;20107;-52
2023/03/27 04:27:50;;;;;;;1.40;1.30;;;8.80;70.80;;;4.00;100.00;94962.34;4992448;28;20037;-52
2023/03/27 04:30:22;;;;;;;1.80;1.25;;;8.80;70.70;;;4.00;100.00;94967.59;4992476;28;20021;-52
2023/03/27 04:32:51;;;;;;;2.63;1.80;;;8.80;70.80;;;3.93;100.00;94968.56;5003933;28;20468;-54
2023/03/27 04:35:20;;;;;;;2.92;1.30;;;8.80;70.80;;;3.99;100.00;94969.44;4991080;28;20029;-50
2023/03/27 04:37:47;;;;;;;2.30;1.40;;;8.80;70.80;;;3.98;100.00;94975.75;4989994;28;20014;-52
2023/03/27 04:40:19;;;;;;;1.48;1.10;;;8.70;70.70;;;3.96;100.00;94977.81;4975083;28;20033;-52
2023/03/27 04:42:45;;;;;;;1.80;1.13;;;8.80;70.80;;;3.94;100.00;94985.16;4992148;28;20053;-56
2023/03/27 04:45:19;;;;;;;2.22;1.30;;;8.70;70.70;;;3.97;100.00;94981.25;5006845;28;20319;-52
2023/03/27 04:47:47;;;;;;;2.55;1.65;;;8.70;70.70;;;3.95;100.00;94989.41;4994351;28;20079;-54
2023/03/27 04:50:15;;;;;;;1.80;1.30;;;8.80;70.70;;;3.96;100.00;95001.53;4993678;28;20082;-53
2023/03/27 04:52:41;;;;;;;3.00;1.88;;;8.80;70.70;;;3.93;100.00;95009.91;5011467;28;20032;-53
2023/03/27 04:55:10;;;;;;;3.50;1.63;;;8.80;70.70;;;3.87;100.00;95014.28;4994289;28;20116;-55
2023/03/27 04:57:36;;;;;;;2.60;1.75;;;8.80;70.70;;;3.86;100.00;95017.19;5010611;28;20365;-52
2023/03/27 05:00:15;;;;;;;2.72;2.22;;;8.70;70.60;;;3.87;100.00;95021.41;5011477;28;20127;-54
2023/03/27 05:02:41;;;;;;;2.65;1.92;;;8.70;70.70;;;3.89;100.00;95037.78;5010434;28;20021;-54
2023/03/27 05:05:08;;;;;;;4.07;1.88;;;8.70;70.70;;;3.91;100.00;95040.97;5011673;28;20023;-51
2023/03/27 05:07:34;;;;;;;3.65;1.92;;;8.70;70.60;;;3.94;100.00;95045.78;5010636;28;20430;-52
2023/03/27 05:10:01;;;;;;;2.78;2.10;;;8.70;70.60;;;3.97;100.00;95050.56;4993711;28;20075;-51
2023/03/27 05:12:27;;;;;;;3.05;2.10;;;8.70;70.60;;;3.94;100.00;95051.03;5011113;28;20075;-56
2023/03/27 05:14:53;;;;;;;2.47;2.10;;;8.70;70.60;;;3.91;100.00;95051.50;5010581;28;20057;-54
2023/03/27 05:17:19;;;;;;;2.65;1.85;;;8.70;70.60;;;3.92;100.00;95074.22;5011350;28;20056;-51
2023/03/27 05:19:45;;;;;;;2.90;2.55;;;8.70;70.60;;;3.87;100.00;95071.47;5010432;28;20040;-51
2023/03/27 05:22:13;;;;;;;16.30;8.57;;;8.70;70.50;;;3.80;100.00;95078.72;5033406;23;20110;-47
2023/03/27 05:24:39;;;;;;;4.30;2.50;;;8.70;70.50;;;3.75;100.00;95076.78;5030554;28;20060;-50
2023/03/27 05:27:05;;;;;;;3.42;2.53;;;8.60;70.30;;;3.75;100.00;95076.78;5030760;28;20434;-46
2023/03/27 05:29:30;;;;;;;15.40;8.50;;;8.60;70.40;;;3.77;100.00;95087.09;5032046;28;20048;-48
2023/03/27 05:31:56;;;;;;;2.88;2.35;;;8.60;70.40;;;3.72;100.00;95093.84;5026213;28;20127;-48
2023/03/27 05:34:22;;;;;;;2.88;2.35;;;8.60;70.40;;;3.71;100.00;95102.78;5002693;28;20033;-53
2023/03/27 05:36:48;;;;;;;2.58;1.92;;;8.50;71.10;;;3.71;100.00;95107.25;5011831;28;20025;-49
2023/03/27 05:39:15;;;;;;;3.22;2.30;;;8.50;70.30;;;3.71;100.00;95105.41;5011052;28;20028;-49
2023/03/27 05:41:42;;;;;;;4.05;2.60;;;8.60;70.40;;;3.69;100.00;95117.22;5010963;28;20113;-47
2023/03/27 05:44:08;;;;;;;2.38;2.17;;;8.60;70.40;;;3.68;100.00;95123.53;5011406;28;20037;-48
2023/03/27 05:46:33;;;;;;;4.53;2.70;;;8.60;70.30;;;3.65;100.00;95126.63;5009279;28;20028;-46
2023/03/27 05:49:00;;;;;;;2.03;1.83;;;8.60;70.30;;;3.64;100.00;95131.09;4999957;28;20538;-47
2023/03/27 05:51:26;;;;;;;3.10;2.47;;;8.50;70.10;;;3.64;100.00;95135.56;5010263;28;20468;-46
2023/03/27 05:53:52;;;;;;;6.43;3.00;;;8.50;70.10;;;3.63;100.00;95132.09;4994234;28;20045;-48
2023/03/27 05:56:19;;;;;;;2.85;2.40;;;8.50;70.10;;;3.64;100.00;95148.75;5011819;28;20083;-47
2023/03/27 05:58:45;;;;;;;3.65;2.17;;;8.60;70.10;;;3.64;100.00;95140.84;5009366;28;20532;-49
2023/03/27 06:01:11;;;;;;;4.07;2.55;;;8.50;70.10;;;3.65;100.00;95153.75;5009315;28;20472;-53
2023/03/27 06:03:37;;;;;;;5.18;3.00;;;8.60;70.20;;;3.65;100.00;95150.34;5010960;28;20080;-49
2023/03/27 06:06:11;;;;;;;3.92;2.72;;;8.60;70.30;;;3.67;100.00;95164.88;5011610;28;20067;-47
2023/03/27 06:08:37;;;;;;;4.70;3.92;;;8.60;70.30;;;3.72;100.00;95177.34;5019494;28;20013;-46
2023/03/27 06:11:13;;;;;;;5.40;2.97;;;8.60;70.30;;;3.72;100.00;95191.31;5008950;28;20086;-47
2023/03/27 06:13:40;;;;;;;4.65;3.50;;;8.60;70.30;;;3.74;100.00;95185.03;5010690;28;20033;-47
2023/03/27 06:16:07;;;;;;;6.35;3.20;;;8.70;70.30;;;3.78;100.00;95196.69;5011540;28;20032;-46
2023/03/27 06:18:33;;;;;;;5.95;3.25;;;8.70;70.20;;;3.84;100.00;95195.78;5009826;28;20029;-48
2023/03/27 06:21:00;;;;;;;5.05;2.60;;;8.70;70.20;;;3.86;100.00;95201.63;5012833;28;20036;-48
2023/03/27 06:23:26;;;;;;;6.32;3.05;;;8.80;70.20;;;3.91;100.00;95212.25;5014905;28;20411;-46
2023/03/27 06:25:52;;;;;;;3.72;2.22;;;8.80;70.10;;;3.93;99.88;95224.19;5013779;28;20036;-46
2023/03/27 06:28:19;;;;;;;3.33;2.35;;;8.90;70.10;;;3.95;100.00;95226.59;4995227;28;20021;-46
2023/03/27 06:30:49;;;;;;;4.05;2.50;;;8.90;70.00;;;3.97;100.00;95223.72;5014966;28;20041;-49
2023/03/27 06:33:15;;;;;;;5.85;2.53;;;8.90;70.00;;;3.86;92.76;95238.50;5013507;28;20108;-47
2023/03/27 06:35:42;;;;;;;3.97;2.17;;;8.90;69.80;;;3.71;88.97;95246.88;5012684;28;20029;-47
2023/03/27 06:38:08;;;;;;;3.00;1.80;;;8.90;69.40;;;3.74;88.32;95246.41;5012859;28;20238;-46
2023/03/27 06:40:35;;;;;;;2.60;1.98;;;8.90;69.10;;;3.71;86.66;95255.56;5014366;28;20095;-47
2023/03/27 06:43:07;;;;;;;2.55;2.03;;;8.90;68.80;;;3.71;86.02;95257.41;5013325;28;20024;-46
2023/03/27 06:45:40;;;;;;;5.15;2.42;;;8.90;68.60;;;3.67;84.65;95259.72;5009588;28;20039;-47
2023/03/27 06:48:06;;;;;;;5.65;2.70;;;8.90;68.30;;;3.76;85.43;95270.72;4999101;28;20131;-47
2023/03/27 06:50:33;;;;;;;5.00;2.60;;;9.00;68.30;;;3.82;84.87;95275.03;5010909;28;20029;-46
2023/03/27 06:53:00;;;;;;;3.80;2.25;;;9.10;68.10;;;3.89;84.64;95283.66;5012647;28;20029;-47
2023/03/27 06:55:30;;;;;;;9.40;3.00;;;9.10;68.00;;;3.81;82.66;95280.56;5010668;28;20112;-48
2023/03/27 06:58:00;;;;;;;8.68;2.63;;;9.10;67.80;;;3.77;81.53;95303.94;5014391;28;20029;-46
2023/03/27 07:00:36;;;;;;;9.20;3.28;;;9.10;67.50;;;3.64;80.18;95312.06;5014177;28;20040;-48
2023/03/27 07:03:07;;;;;;;5.57;2.65;;;9.00;67.10;;;3.60;80.15;95311.69;5012859;28;20013;-47
2023/03/27 07:05:37;;;;;;;6.22;2.72;;;9.00;66.90;;;3.58;80.17;95326.13;5014294;28;20044;-46
2023/03/27 07:08:17;;;;;;;5.63;2.78;;;9.00;66.60;;;3.59;80.98;95325.88;5019167;28;20035;-48
2023/03/27 07:10:43;;;;;;;4.45;2.70;;;9.10;66.40;;;3.73;81.14;95337.03;5019713;28;20025;-51
2023/03/27 07:13:10;;;;;;;5.55;2.72;;;9.20;66.30;;;3.84;80.14;95349.41;4996307;28;20021;-48
2023/03/27 07:15:36;;;;;;;4.97;2.70;;;9.30;66.10;;;3.84;75.10;95346.78;5031470;28;20025;-49
2023/03/27 07:18:07;;;;;;;6.30;3.08;;;9.50;65.80;;;3.94;76.46;95344.34;5033874;28;20043;-47
2023/03/27 07:20:34;;;;;;;8.88;3.53;;;9.70;65.30;;;4.08;76.18;95346.78;5023415;28;20025;-46
2023/03/27 07:23:02;;;;;;;3.80;3.05;;;9.90;65.00;;;4.27;76.24;95352.75;5012592;28;20037;-47
2023/03/27 07:25:36;;;;;;;3.65;2.50;;;10.10;64.70;;;4.28;73.19;95357.78;4992707;28;20061;-48
2023/03/27 07:28:15;;;;;;;6.68;2.75;;;10.40;64.80;;;4.23;72.76;95376.16;5013741;28;20024;-46
2023/03/27 07:30:41;;;;;;;7.07;3.35;;;10.50;63.00;;;4.31;73.02;95383.69;5014079;28;20028;-46
2023/03/27 07:33:09;;;;;;;8.35;3.13;;;10.70;62.80;;;4.42;73.29;95376.81;5013214;28;20028;-46
2023/03/27 07:35:42;;;;;;;6.53;2.70;;;10.70;62.40;;;4.48;71.76;95381.19;5013534;28;20036;-46
2023/03/27 07:38:10;;;;;;;5.38;3.17;;;10.90;61.90;;;4.59;71.78;95388.25;5012732;28;20025;-46
2023/03/27 07:40:37;;;;;;;3.60;2.30;;;11.00;61.80;;;4.60;69.38;95384.59;4995235;28;20071;-46
2023/03/27 07:43:06;;;;;;;5.00;2.65;;;11.10;61.30;;;4.59;68.15;95395.38;5013452;28;20018;-47
2023/03/27 07:45:34;;;;;;;5.82;2.78;;;11.10;60.80;;;4.59;66.18;95393.53;5029477;28;20108;-46
2023/03/27 07:48:14;;;;;;;6.00;2.75;;;11.20;60.30;;;4.60;67.50;95405.69;5033013;28;20032;-46
2023/03/27 07:50:42;;;;;;;5.50;3.22;;;11.30;59.80;;;4.61;69.35;95417.88;5021768;28;20173;-48
2023/03/27 07:53:08;;;;;;;7.30;3.55;;;11.20;59.60;;;4.63;68.56;95417.63;5013119;28;20025;-46
2023/03/27 07:55:36;;;;;;;5.75;3.05;;;11.20;59.40;;;4.71;68.75;95419.91;5012483;28;20052;-47
2023/03/27 07:58:05;;;;;;;4.88;2.72;;;11.20;59.30;;;4.62;68.19;95430.00;5033346;28;20025;-46
2023/03/27 08:00:34;;;;;;;4.57;3.22;;;11.10;59.10;;;4.78;69.24;95430.34;5032725;28;20037;-47
2023/03/27 08:03:10;;;;;;;6.93;3.05;;;11.10;59.10;;;4.90;67.46;95446.19;5018243;28;20017;-46
2023/03/27 08:05:37;;;;;;;4.43;2.92;;;11.20;58.80;;;5.04;65.84;95456.22;5012980;28;20106;-47
2023/03/27 08:08:03;;;;;;;4.97;3.20;;;11.30;58.80;;;5.30;67.40;95464.69;5011457;28;20407;-50
2023/03/27 08:10:29;;;;;;;5.05;2.72;;;11.50;58.70;;;5.47;64.36;95476.13;5011957;28;20051;-50
2023/03/27 08:12:55;;;;;;;7.70;4.57;;;11.80;58.50;;;5.68;65.72;95473.88;5012435;28;20028;-49
2023/03/27 08:15:21;;;;;;;6.07;2.92;;;12.10;58.10;;;5.60;63.25;95482.16;5011084;28;20024;-49
2023/03/27 08:17:52;;;;;;;8.75;2.83;;;12.30;57.70;;;5.44;62.90;95483.72;5012265;28;20021;-51
2023/03/27 08:20:19;;;;;;;4.25;2.88;;;12.40;57.10;;;5.46;63.55;95485.09;5011158;28;20397;-50
2023/03/27 08:22:45;;;;;;;8.27;3.70;;;12.40;56.80;;;5.51;62.78;95487.00;5011637;28;20041;-54
2023/03/27 08:25:11;;;;;;;4.63;3.10;;;12.40;56.60;;;5.39;63.53;95491.53;5011934;28;20021;-50
2023/03/27 08:27:38;;;;;;;6.03;3.03;;;12.30;56.30;;;5.37;65.08;95504.19;5010787;28;20151;-50
2023/03/27 08:30:05;;;;;;;5.32;2.85;;;12.20;56.10;;;5.37;63.69;95510.25;5012035;28;20032;-52
2023/03/27 08:32:31;;;;;;;5.25;3.00;;;12.10;56.10;;;5.21;62.38;95514.44;5010106;28;20180;-54
2023/03/27 08:34:57;;;;;;;4.53;2.95;;;12.00;55.80;;;5.27;64.38;95525.91;5011675;28;20117;-52
2023/03/27 08:37:23;;;;;;;4.75;3.03;;;11.90;55.70;;;5.18;64.95;95535.22;5011198;28;20022;-52
2023/03/27 08:39:49;;;;;;;4.75;2.75;;;11.80;55.70;;;5.15;64.67;95536.47;5011819;28;20036;-49
2023/03/27 08:42:27;;;;;;;9.38;3.00;;;11.70;55.80;;;5.09;64.01;95542.69;5011867;28;20425;-50
2023/03/27 08:45:07;;;;;;;6.72;3.10;;;11.60;55.70;;;4.99;64.94;95540.63;4993400;28;20031;-52
2023/03/27 08:47:46;;;;;;;7.35;2.95;;;11.40;55.80;;;4.97;63.33;95540.03;5006088;28;20029;-49
2023/03/27 08:50:47;;;;;;;6.40;2.92;;;11.40;55.80;;;4.98;64.06;95532.91;4968400;28;20017;-50
2023/03/27 08:54:10;;;;;;;7.40;2.70;;;11.30;55.60;;;4.85;61.99;95545.31;5002442;28;20037;-49
2023/03/27 08:56:36;;;;;;;6.80;3.08;;;11.30;55.60;;;4.97;63.83;95544.53;4998098;28;20041;-48
2023/03/27 08:59:04;;;;;;;4.32;2.42;;;11.40;55.60;;;4.83;63.65;95550.03;5009633;28;20101;-51
2023/03/27 09:01:44;;;;;;;6.07;2.45;;;11.50;55.30;;;4.63;63.82;95547.69;5008482;28;20111;-50
2023/03/27 09:04:30;;;;;;;4.13;2.20;;;11.50;55.00;;;4.55;63.07;95547.25;5009786;28;20039;-51
2023/03/27 09:07:08;;;;;;;4.70;2.10;;;11.50;54.80;;;4.61;62.52;95552.41;5009081;28;20060;-50
2023/03/27 09:10:24;;;;;;;5.25;2.20;;;11.50;54.40;;;4.62;60.57;95556.66;5002425;28;20036;-48
2023/03/27 09:13:48;;;;;;;5.13;2.33;;;11.50;54.10;;;4.82;60.48;95568.72;5007007;28;20037;-48
2023/03/27 09:16:47;;;;;;;6.88;2.50;;;11.60;53.90;;;4.84;60.46;95571.94;4950893;28;20381;-49
2023/03/27 09:19:58;;;;;;;3.55;1.80;;;11.70;53.60;;;5.04;60.06;95580.31;4992191;28;20053;-49
2023/03/27 09:22:39;;;;;;;5.72;2.40;;;11.70;53.40;;;4.92;58.08;95579.53;4989265;28;20069;-48
2023/03/27 09:25:25;;;;;;;5.20;2.20;;;11.80;53.20;;;5.06;57.72;95578.25;4974199;28;20029;-50
2023/03/27 09:27:52;;;;;;;3.35;1.60;;;11.70;52.80;;;4.92;59.13;95576.06;5011469;28;20035;-50
2023/03/27 09:30:33;;;;;;;3.08;1.55;;;11.70;53.00;;;4.90;58.53;95586.06;4993898;28;20045;-50
2023/03/27 09:33:04;;;;;;;5.82;1.85;;;11.60;52.60;;;4.87;59.79;95585.47;5010128;28;20037;-48
2023/03/27 09:35:34;;;;;;;6.40;2.70;;;11.60;52.70;;;4.98;62.15;95598.91;5010137;28;20529;-49
2023/03/27 09:38:11;;;;;;;3.67;2.20;;;11.60;52.80;;;5.20;60.24;95599.97;4992717;28;20033;-50
2023/03/27 09:41:02;;;;;;;3.60;2.10;;;11.80;53.20;;;5.44;59.16;95607.88;5010575;28;20117;-48
2023/03/27 09:44:19;;;;;;;4.53;2.13;;;12.20;52.20;;;5.83;58.35;95598.41;5010791;28;20024;-49
2023/03/27 09:47:09;;;;;;;3.95;1.90;;;12.70;51.80;;;6.23;56.20;95597.59;5003556;28;20045;-49
2023/03/27 09:49:52;;;;;;;3.85;2.15;;;13.10;51.50;;;6.65;56.51;95610.53;4986522;28;20112;-49
2023/03/27 09:52:35;;;;;;;4.80;1.70;;;13.50;51.20;;;6.78;56.67;95610.22;5010091;28;20025;-51
2023/03/27 09:55:01;;;;;;;2.88;1.83;;;13.80;50.60;;;6.87;51.90;95618.56;5011429;28;20443;-48
2023/03/27 09:57:36;;;;;;;4.25;1.58;;;14.00;50.10;;;6.84;49.12;95613.75;5010864;28;20024;-50
2023/03/27 10:00:26;;;;;;;3.35;1.80;;;14.30;49.10;;;6.76;52.36;95617.59;4994436;28;20414;-52
2023/03/27 10:03:19;;;;;;;4.35;1.83;;;14.40;48.50;;;7.01;50.97;95621.69;5011410;28;20017;-50
2023/03/27 10:05:48;;;;;;;6.65;2.05;;;14.60;48.20;;;7.22;50.23;95612.22;5013912;28;20025;-52
2023/03/27 10:08:23;;;;;;;1.83;1.60;;;14.80;48.20;;;7.52;52.17;95627.75;4994677;28;20590;-50
2023/03/27 10:10:57;;;;;;;5.07;1.80;;;15.00;47.80;;;7.71;47.82;95625.63;5009241;28;20032;-52
2023/03/27 10:13:29;;;;;;;5.72;1.85;;;15.20;47.30;;;7.32;47.94;95625.63;5010858;28;20051;-51
2023/03/27 10:16:04;;;;;;;6.30;1.73;;;15.20;46.60;;;7.36;48.35;95642.63;5012004;28;20104;-54
2023/03/27 10:18:41;;;;;;;4.68;1.70;;;15.10;46.10;;;7.24;48.78;95641.91;5004502;28;20018;-50
2023/03/27 10:21:25;;;;;;;4.05;1.73;;;15.00;45.80;;;7.41;49.82;95648.81;4995188;28;20127;-49
2023/03/27 10:23:58;;;;;;;2.78;1.65;;;15.00;46.00;;;7.52;46.05;95651.59;5013316;28;20072;-50
2023/03/27 10:26:30;;;;;;;3.50;1.50;;;15.00;45.80;;;7.53;44.55;95654.03;4995084;28;20090;-53
2023/03/27 10:29:30;;;;;;;3.60;1.70;;;15.20;45.10;;;7.86;45.22;95655.78;4996780;28;20029;-49
2023/03/27 10:32:02;;;;;;;3.42;1.65;;;15.80;44.40;;;7.91;43.16;95662.22;4996791;28;20382;-53
2023/03/27 10:34:49;;;;;;;2.95;1.50;;;16.00;43.90;;;7.84;44.94;95657.91;5012682;28;20025;-52
2023/03/27 10:37:29;;;;;;;3.70;1.55;;;16.00;43.30;;;8.04;47.18;95672.47;4997095;28;20032;-53
2023/03/27 10:40:06;;;;;;;4.75;1.52;;;16.00;43.40;;;8.07;48.61;95669.34;5012776;28;20057;-52
2023/03/27 10:42:32;;;;;;;6.03;2.03;;;16.10;43.20;;;8.05;47.79;95682.03;5013030;28;20017;-54
2023/03/27 10:45:00;;;;;;;6.82;2.10;;;16.20;43.10;;;8.44;45.89;95687.31;5011653;28;20108;-53
2023/03/27 10:47:32;;;;;;;4.43;1.73;;;16.70;43.00;;;8.80;44.62;95683.97;5013517;28;20056;-53
2023/03/27 10:50:40;;;;;;;4.20;1.70;;;17.10;42.20;;;9.19;42.59;95678.50;4998540;28;20041;-53
2023/03/27 10:54:00;;;;;;;2.38;1.38;;;17.50;41.50;;;9.52;41.75;95679.28;5016769;28;20390;-53
2023/03/27 10:57:13;;;;;;;3.92;1.85;;;17.90;41.40;;;9.53;40.91;95678.25;4925168;28;20034;-54
2023/03/27 11:00:00;;;;;;;1.92;1.35;;;18.20;40.20;;;9.40;44.12;95686.63;4997950;28;20489;-55
2023/03/27 11:02:46;;;;;;;3.75;2.13;;;18.30;40.20;;;9.50;43.06;95692.84;5003395;28;20027;-53